Time;durP1;ratioP1;P1;durP2;ratioP2;P2;SDS_P1;SDS_P2;PMS_P1;PMS_P2;Temp;Humidity;BMP_temperature;BMP_pressure;BME280_temperature;BME280_humidity;BME280_pressure;Samples;Min_cycle;Max_cycle;Signal;HPM_P1;HPM_P2
2023/03/02 00:00:57;;;;;;;;;55.25;46.50;;;;;5.92;41.43;101521.78;5019320;28;46897;-62
2023/03/02 00:03:23;;;;;;;;;51.75;41.75;;;;;5.92;42.10;101507.88;5019356;28;45250;-62
2023/03/02 00:05:48;;;;;;;;;56.00;40.75;;;;;5.86;42.22;101512.13;5019351;28;45329;-62
2023/03/02 00:08:18;;;;;;;;;56.00;43.75;;;;;5.86;41.61;101519.06;5019260;28;45295;-62
2023/03/02 00:10:43;;;;;;;;;60.75;48.00;;;;;5.86;41.90;101516.44;5017804;28;47242;-62
2023/03/02 00:13:10;;;;;;;;;54.25;44.00;;;;;5.82;42.03;101515.53;5002297;28;45376;-62
2023/03/02 00:15:35;;;;;;;;;56.50;45.25;;;;;5.82;41.89;101520.75;5019466;28;45492;-62
2023/03/02 00:18:01;;;;;;;;;56.75;44.75;;;;;5.80;41.88;101524.19;5034350;28;46835;-62
2023/03/02 00:20:26;;;;;;;;;51.25;42.00;;;;;5.76;42.02;101528.47;5018822;28;45898;-62
2023/03/02 00:22:51;;;;;;;;;44.75;38.75;;;;;5.74;41.85;101524.06;5018906;28;45398;-62
2023/03/02 00:25:17;;;;;;;;;55.25;43.25;;;;;5.76;42.22;101518.03;5019332;28;45355;-62
2023/03/02 00:27:43;;;;;;;;;57.75;43.00;;;;;5.75;42.04;101520.59;5019015;28;45466;-62
2023/03/02 00:30:10;;;;;;;;;55.75;44.25;;;;;5.73;41.79;101528.41;5018972;28;46293;-62
2023/03/02 00:32:36;;;;;;;;;57.50;46.00;;;;;5.73;41.97;101527.53;5018878;28;45352;-62
2023/03/02 00:35:01;;;;;;;;;54.00;43.25;;;;;5.70;42.10;101524.00;5019200;28;45301;-62
2023/03/02 00:37:27;;;;;;;;;53.75;41.75;;;;;5.66;42.40;101511.78;5018776;28;45623;-63
2023/03/02 00:39:52;;;;;;;;;60.75;46.50;;;;;5.69;42.04;101526.59;5017597;28;46101;-63
2023/03/02 00:42:18;;;;;;;;;49.00;41.50;;;;;5.64;42.30;101521.28;5004618;28;45970;-62
2023/03/02 00:44:44;;;;;;;;;54.75;44.00;;;;;5.64;42.18;101531.72;5010344;28;45362;-62
2023/03/02 00:47:09;;;;;;;;;54.75;42.00;;;;;5.64;42.36;101523.88;5014240;28;45306;-62
2023/03/02 00:49:35;;;;;;;;;53.75;43.50;;;;;5.61;42.12;101518.63;5018580;28;46110;-64
2023/03/02 00:52:01;;;;;;;;;59.25;42.75;;;;;5.60;42.26;101521.22;5018845;28;45410;-62
2023/03/02 00:54:26;;;;;;;;;56.25;42.00;;;;;5.58;42.27;101528.97;5018899;28;45259;-62
2023/03/02 00:56:52;;;;;;;;;56.25;45.25;;;;;5.52;41.99;101510.63;5018852;28;45224;-62
2023/03/02 00:59:26;;;;;;;;;57.75;45.25;;;;;5.55;42.43;101521.13;5018637;28;46183;-63
2023/03/02 01:01:58;;;;;;;;;64.00;45.50;;;;;5.53;42.11;101523.72;5018499;28;45229;-62
2023/03/02 01:04:32;;;;;;;;;59.25;47.50;;;;;5.51;42.18;101527.13;5018618;28;45260;-62
2023/03/02 01:06:59;;;;;;;;;56.00;41.50;;;;;5.50;42.05;101526.22;5033193;28;45570;-62
2023/03/02 01:09:25;;;;;;;;;55.25;45.50;;;;;5.49;42.35;101529.69;5018455;28;45655;-62
2023/03/02 01:11:51;;;;;;;;;58.00;47.00;;;;;5.45;42.36;101514.84;5010306;28;45228;-62
2023/03/02 01:14:16;;;;;;;;;52.50;42.00;;;;;5.46;42.42;101519.22;5010491;28;45176;-62
2023/03/02 01:16:42;;;;;;;;;61.00;47.00;;;;;5.45;42.47;101525.28;5016671;28;45209;-62
2023/03/02 01:19:07;;;;;;;;;53.00;39.00;;;;;5.44;42.17;101528.72;5018427;28;45214;-62
2023/03/02 01:21:32;;;;;;;;;59.00;45.75;;;;;5.44;42.32;101520.03;5016655;28;45670;-62
2023/03/02 01:23:58;;;;;;;;;56.75;43.25;;;;;5.42;42.51;101525.22;5018466;28;45668;-62
2023/03/02 01:26:23;;;;;;;;;47.00;41.00;;;;;5.39;42.43;101513.84;5018259;28;45536;-62
2023/03/02 01:28:54;;;;;;;;;59.00;45.75;;;;;5.40;42.33;101516.50;5018266;28;45232;-62
2023/03/02 01:31:20;;;;;;;;;59.00;47.00;;;;;5.37;42.57;101512.09;5016539;28;45406;-62
2023/03/02 01:33:45;;;;;;;;;55.00;44.75;;;;;5.37;42.46;101511.19;5018478;28;45173;-62
2023/03/02 01:36:10;;;;;;;;;60.50;43.75;;;;;5.34;42.36;101511.16;5017741;28;47894;-62
2023/03/02 01:38:36;;;;;;;;;54.50;42.75;;;;;5.27;42.49;101501.44;5016867;28;45349;-62
2023/03/02 01:41:01;;;;;;;;;54.50;41.00;;;;;5.34;42.52;101503.34;5013823;28;45243;-62
2023/03/02 01:43:28;;;;;;;;;55.00;44.00;;;;;5.30;42.44;101496.31;5009233;28;45247;-62
2023/03/02 01:45:56;;;;;;;;;55.50;43.00;;;;;5.29;42.62;101494.53;5004599;28;45261;-62
2023/03/02 01:48:32;;;;;;;;;57.00;43.75;;;;;5.29;42.68;101500.63;5016730;28;45422;-62
2023/03/02 01:51:00;;;;;;;;;58.00;45.00;;;;;5.30;42.44;101498.91;5033076;27;45464;-62
2023/03/02 01:53:29;;;;;;;;;59.00;48.25;;;;;5.27;42.71;101496.22;5018172;28;45421;-62
2023/03/02 01:55:56;;;;;;;;;49.50;41.25;;;;;5.27;42.47;101497.13;5017949;28;45397;-62
2023/03/02 01:58:22;;;;;;;;;52.50;42.00;;;;;5.23;42.46;101494.41;5017901;28;45480;-62
2023/03/02 02:00:48;;;;;;;;;56.50;44.00;;;;;5.16;42.55;101476.06;5017904;28;45393;-62
2023/03/02 02:03:22;;;;;;;;;41.00;38.50;;;;;5.17;42.92;101485.63;5018005;28;45255;-62
2023/03/02 02:06:04;;;;;;;;;49.00;38.50;;;;;5.19;42.85;101489.16;5016351;28;45431;-63
2023/03/02 02:08:31;;;;;;;;;50.00;42.25;;;;;5.17;42.62;101489.94;5016570;28;47577;-63
2023/03/02 02:10:57;;;;;;;;;60.75;44.50;;;;;5.13;42.67;101486.44;5032243;27;45439;-62
2023/03/02 02:13:22;;;;;;;;;55.25;43.50;;;;;4.93;42.63;101454.75;5018249;28;45349;-63
2023/03/02 02:15:47;;;;;;;;;51.50;41.50;;;;;5.12;42.68;101487.28;5017839;28;45536;-63
2023/03/02 02:18:13;;;;;;;;;48.75;41.50;;;;;5.09;43.14;101488.94;5017385;28;46040;-62
2023/03/02 02:20:46;;;;;;;;;52.75;43.00;;;;;5.12;42.71;101481.16;5017386;28;45424;-63
2023/03/02 02:23:23;;;;;;;;;47.25;39.75;;;;;5.11;42.94;101484.66;5017753;28;45390;-62
2023/03/02 02:25:48;;;;;;;;;59.25;43.75;;;;;5.08;42.80;101467.22;5016330;28;45482;-63
2023/03/02 02:28:28;;;;;;;;;56.00;46.00;;;;;5.07;42.77;101468.06;5017666;28;45685;-62
2023/03/02 02:31:14;;;;;;;;;55.00;43.50;;;;;5.05;42.93;101474.97;5017494;28;45364;-63
2023/03/02 02:33:44;;;;;;;;;56.75;46.50;;;;;5.02;42.93;101470.56;5017762;28;45387;-62
2023/03/02 02:36:19;;;;;;;;;60.75;45.25;;;;;5.01;43.07;101470.53;5015872;28;45489;-62
2023/03/02 02:38:48;;;;;;;;;53.25;41.00;;;;;5.01;42.87;101488.78;5017357;28;45508;-63
2023/03/02 02:41:22;;;;;;;;;56.00;42.25;;;;;4.98;42.70;101473.97;5011812;28;45296;-62
2023/03/02 02:43:48;;;;;;;;;58.25;43.50;;;;;4.96;43.21;101473.03;5011482;28;45240;-62
2023/03/02 02:46:14;;;;;;;;;53.50;42.50;;;;;4.98;43.13;101475.69;5005298;28;45228;-63
2023/03/02 02:48:39;;;;;;;;;48.25;40.50;;;;;4.93;43.25;101469.50;5017096;28;45164;-62
2023/03/02 02:51:08;;;;;;;;;51.25;41.25;;;;;4.92;42.98;101472.94;5017223;28;45230;-62
2023/03/02 02:53:57;;;;;;;;;54.25;43.25;;;;;4.94;43.13;101473.88;5016027;28;45433;-62
2023/03/02 02:56:25;;;;;;;;;54.00;42.00;;;;;4.90;43.11;101465.09;5015857;28;45468;-63
2023/03/02 02:58:54;;;;;;;;;46.50;38.75;;;;;4.90;43.15;101477.25;5015768;28;46160;-63
2023/03/02 03:01:24;;;;;;;;;54.50;42.00;;;;;4.90;43.13;101479.88;5017014;28;45362;-62
2023/03/02 03:04:01;;;;;;;;;56.00;41.25;;;;;4.85;42.76;101471.94;5017153;28;45371;-62
2023/03/02 03:06:37;;;;;;;;;55.00;42.50;;;;;4.85;42.83;101470.22;5015419;28;45989;-62
2023/03/02 03:09:04;;;;;;;;;61.75;44.00;;;;;4.84;43.06;101470.19;5016843;28;45380;-63
2023/03/02 03:11:32;;;;;;;;;48.50;40.25;;;;;4.83;43.13;101473.63;5011714;28;45435;-62
2023/03/02 03:14:07;;;;;;;;;55.75;43.75;;;;;4.81;42.86;101468.38;5006622;28;45300;-62
2023/03/02 03:16:33;;;;;;;;;47.50;38.25;;;;;4.78;43.31;101470.03;5031885;28;45502;-63
2023/03/02 03:19:05;;;;;;;;;58.50;45.25;;;;;4.77;42.84;101474.38;5016712;28;46269;-63
2023/03/02 03:21:30;;;;;;;;;48.75;40.75;;;;;4.75;43.19;101475.22;5015581;28;45487;-63
2023/03/02 03:23:56;;;;;;;;;54.25;41.50;;;;;4.73;42.98;101467.38;5016883;28;45709;-62
2023/03/02 03:26:21;;;;;;;;;57.50;42.25;;;;;4.74;43.20;101468.22;5016849;28;45383;-62
2023/03/02 03:28:46;;;;;;;;;56.25;43.00;;;;;4.70;43.22;101468.19;5016580;28;46053;-62
2023/03/02 03:31:12;;;;;;;;;50.50;40.25;;;;;4.71;43.14;101463.84;5016671;28;45451;-62
2023/03/02 03:33:37;;;;;;;;;53.75;43.75;;;;;4.69;43.00;101473.34;5016865;28;45222;-63
2023/03/02 03:36:02;;;;;;;;;47.00;40.25;;;;;4.66;43.35;101466.34;5015074;28;45744;-62
2023/03/02 03:38:29;;;;;;;;;51.75;41.25;;;;;4.62;43.08;101463.66;5016573;28;45292;-63
2023/03/02 03:40:54;;;;;;;;;49.00;40.00;;;;;4.63;43.44;101470.59;5013445;28;45313;-62
2023/03/02 03:43:19;;;;;;;;;47.50;37.25;;;;;4.56;43.26;101466.97;5005669;28;45252;-62
2023/03/02 03:45:45;;;;;;;;;55.25;39.00;;;;;4.59;43.33;101468.78;5003049;28;45192;-63
2023/03/02 03:48:10;;;;;;;;;54.75;43.50;;;;;4.59;43.25;101469.66;5016126;28;46166;-63
2023/03/02 03:50:35;;;;;;;;;53.00;39.25;;;;;4.56;43.32;101465.25;5014758;28;45338;-63
2023/03/02 03:53:01;;;;;;;;;56.75;45.00;;;;;4.53;43.35;101462.59;5015367;28;45353;-62
2023/03/02 03:55:27;;;;;;;;;53.25;40.50;;;;;4.54;43.23;101472.16;5016076;28;45448;-62
2023/03/02 03:57:54;;;;;;;;;58.50;43.00;;;;;4.51;43.49;101469.47;5016362;28;45325;-62
2023/03/02 04:00:20;;;;;;;;;55.50;42.75;;;;;4.47;43.58;101461.59;5016151;28;45396;-62
2023/03/02 04:02:45;;;;;;;;;47.25;39.00;;;;;4.48;43.13;101465.94;5016626;28;45448;-62
2023/03/02 04:05:11;;;;;;;;;51.50;40.25;;;;;4.48;43.76;101481.56;5016944;28;45522;-62
2023/03/02 04:07:38;;;;;;;;;53.75;41.75;;;;;4.47;43.52;101482.41;5019321;28;46877;-62
2023/03/02 04:10:05;;;;;;;;;55.25;44.50;;;;;4.42;43.55;101473.63;5019080;28;45328;-63
2023/03/02 04:12:37;;;;;;;;;56.50;44.00;;;;;4.44;43.40;101480.63;5005817;28;45537;-63
2023/03/02 04:15:05;;;;;;;;;56.00;42.25;;;;;4.43;43.41;101475.34;5017810;28;45256;-63
2023/03/02 04:17:30;;;;;;;;;48.25;38.75;;;;;4.40;43.51;101470.97;5001650;28;47038;-62
2023/03/02 04:19:55;;;;;;;;;55.75;46.00;;;;;4.39;43.58;101480.50;5018790;28;45252;-63
2023/03/02 04:22:21;;;;;;;;;47.50;41.25;;;;;4.40;43.46;101478.75;5019161;28;45346;-64
2023/03/02 04:24:49;;;;;;;;;58.00;43.50;;;;;4.38;43.41;101486.53;5051044;28;45420;-62
2023/03/02 04:27:15;;;;;;;;;51.75;41.50;;;;;4.37;43.17;101481.31;5018976;28;46413;-63
2023/03/02 04:29:42;;;;;;;;;52.50;42.00;;;;;4.34;43.46;101484.72;5018980;28;45222;-62
2023/03/02 04:32:08;;;;;;;;;55.00;41.25;;;;;4.34;43.25;101479.53;5019262;28;45218;-62
2023/03/02 04:34:34;;;;;;;;;52.25;40.00;;;;;4.34;43.45;101484.72;5018757;28;45226;-62
2023/03/02 04:36:59;;;;;;;;;54.00;43.50;;;;;4.33;43.44;101482.09;5018915;28;45332;-62
2023/03/02 04:39:25;;;;;;;;;55.00;44.00;;;;;4.31;43.59;101488.97;5016985;28;45281;-62
2023/03/02 04:41:51;;;;;;;;;56.75;45.50;;;;;4.29;43.49;101485.44;5008436;28;45590;-62
2023/03/02 04:44:17;;;;;;;;;53.50;44.00;;;;;4.27;43.68;101490.63;5008879;28;45395;-62
2023/03/02 04:46:43;;;;;;;;;50.75;40.00;;;;;4.26;43.78;101491.47;5002303;28;46006;-62
2023/03/02 04:49:09;;;;;;;;;55.50;43.25;;;;;4.26;43.80;101486.25;5050640;28;45385;-62
2023/03/02 04:51:40;;;;;;;;;62.75;48.50;;;;;4.20;43.33;101483.50;5019004;28;45302;-63
2023/03/02 04:54:12;;;;;;;;;56.25;44.00;;;;;4.22;43.60;101490.50;5018616;28;45496;-62
2023/03/02 04:56:37;;;;;;;;;59.75;46.50;;;;;4.20;43.60;101484.41;5018579;28;46318;-62
2023/03/02 04:59:03;;;;;;;;;60.00;46.75;;;;;4.20;43.52;101480.91;5017451;28;45724;-63
2023/03/02 05:01:28;;;;;;;;;55.50;39.50;;;;;4.18;43.48;101478.28;5017056;28;45319;-62
2023/03/02 05:03:53;;;;;;;;;50.75;43.00;;;;;4.19;43.54;101485.25;5017399;28;45667;-63
2023/03/02 05:06:20;;;;;;;;;60.25;47.75;;;;;4.18;43.97;101478.28;5017046;28;47989;-62
2023/03/02 05:08:46;;;;;;;;;55.25;43.00;;;;;4.16;43.68;101479.06;5018570;28;45441;-62
2023/03/02 05:11:20;;;;;;;;;58.75;46.00;;;;;4.16;43.63;101490.34;5015649;28;45463;-62
2023/03/02 05:13:47;;;;;;;;;54.25;42.50;;;;;4.14;43.72;101493.75;5006618;28;45349;-62
2023/03/02 05:16:13;;;;;;;;;56.75;44.50;;;;;4.12;43.41;101488.53;5016331;28;46166;-62
2023/03/02 05:18:38;;;;;;;;;57.00;43.25;;;;;4.09;43.57;101488.47;5034888;27;45554;-62
2023/03/02 05:21:05;;;;;;;;;59.50;45.00;;;;;4.09;43.68;101483.25;5018177;28;45259;-62
2023/03/02 05:23:30;;;;;;;;;58.25;46.75;;;;;4.06;43.87;101483.16;5018527;28;45527;-62
2023/03/02 05:25:55;;;;;;;;;59.50;46.75;;;;;4.06;43.71;101480.56;5018025;28;46017;-65
2023/03/02 05:28:23;;;;;;;;;60.00;47.75;;;;;4.05;43.81;101481.41;5017243;28;45727;-63
2023/03/02 05:30:49;;;;;;;;;54.75;44.75;;;;;4.05;44.07;101481.41;5018245;28;45472;-62
2023/03/02 05:33:15;;;;;;;;;50.00;43.50;;;;;3.99;44.02;101476.94;5018408;28;45468;-63
2023/03/02 05:35:41;;;;;;;;;57.25;47.75;;;;;3.99;43.74;101481.28;5017869;28;45356;-63
2023/03/02 05:38:07;;;;;;;;;57.50;44.50;;;;;4.00;43.74;101490.81;5018380;28;45276;-62
2023/03/02 05:40:32;;;;;;;;;60.25;48.00;;;;;4.00;44.05;101493.41;5017934;28;45458;-62
2023/03/02 05:42:58;;;;;;;;;65.00;47.00;;;;;3.99;44.17;101494.28;5005347;28;45584;-62
2023/03/02 05:45:29;;;;;;;;;55.75;45.25;;;;;3.98;44.12;101492.53;5004799;28;46207;-63
2023/03/02 05:47:54;;;;;;;;;58.75;44.50;;;;;3.96;44.10;101500.28;5016612;28;45194;-63
2023/03/02 05:50:20;;;;;;;;;59.50;46.00;;;;;3.96;44.13;101492.50;5017933;28;45149;-62
2023/03/02 05:52:45;;;;;;;;;59.25;43.50;;;;;3.95;43.67;101500.22;5011187;27;45672;-62
2023/03/02 05:55:15;;;;;;;;;56.75;47.50;;;;;3.95;43.92;101508.03;4997571;28;46036;-63
2023/03/02 05:57:41;;;;;;;;;60.00;47.50;;;;;3.94;44.17;101504.56;5024822;28;45766;-61
2023/03/02 06:00:08;;;;;;;;;62.75;47.50;;;;;3.90;43.85;101498.41;5012922;28;45441;-63
2023/03/02 06:02:34;;;;;;;;;59.00;45.00;;;;;3.92;44.42;101502.78;5006841;28;45503;-62
2023/03/02 06:04:59;;;;;;;;;64.50;47.50;;;;;3.89;44.20;101495.78;5001212;28;47918;-62
2023/03/02 06:07:26;;;;;;;;;61.25;47.00;;;;;3.92;44.03;101507.97;4997927;28;45230;-63
2023/03/02 06:09:51;;;;;;;;;58.25;45.75;;;;;3.90;43.79;101511.41;4996851;28;45449;-63
2023/03/02 06:12:17;;;;;;;;;57.75;44.00;;;;;3.89;43.86;101512.25;4996290;28;45275;-62
2023/03/02 06:14:43;;;;;;;;;59.50;48.00;;;;;3.84;43.84;101507.78;5002824;28;45393;-63
2023/03/02 06:17:08;;;;;;;;;58.00;47.50;;;;;3.88;44.49;101518.28;5002604;28;45295;-63
2023/03/02 06:19:34;;;;;;;;;61.25;48.75;;;;;3.87;44.08;101529.56;5002865;28;45354;-63
2023/03/02 06:21:59;;;;;;;;;65.75;48.75;;;;;3.84;44.02;101513.84;5002936;28;45440;-63
2023/03/02 06:24:24;;;;;;;;;59.50;48.25;;;;;3.85;43.89;101518.22;4996153;28;45941;-63
2023/03/02 06:26:52;;;;;;;;;57.25;47.75;;;;;3.85;44.37;101522.50;4997710;28;45299;-63
2023/03/02 06:29:17;;;;;;;;;69.25;49.75;;;;;3.85;44.45;101525.13;5010436;28;45295;-62
2023/03/02 06:31:42;;;;;;;;;60.75;48.50;;;;;3.81;44.52;101523.28;5016148;28;49437;-63
2023/03/02 06:34:08;;;;;;;;;59.50;48.00;;;;;3.82;44.24;101525.91;5017406;28;45270;-63
2023/03/02 06:36:33;;;;;;;;;61.50;49.25;;;;;3.78;44.04;101523.22;5015566;28;50697;-63
2023/03/02 06:38:58;;;;;;;;;54.25;44.25;;;;;3.79;44.31;101525.84;5017449;28;45248;-63
2023/03/02 06:41:24;;;;;;;;;63.75;50.25;;;;;3.79;44.59;101531.06;5016308;28;45214;-63
2023/03/02 06:43:50;;;;;;;;;59.50;46.50;;;;;3.74;43.92;101533.53;5015755;28;46353;-63
2023/03/02 06:46:15;;;;;;;;;63.75;48.50;;;;;3.76;44.18;101536.19;5005532;28;45211;-63
2023/03/02 06:48:40;;;;;;;;;60.00;46.75;;;;;3.78;44.70;101544.03;5017463;28;45627;-62
2023/03/02 06:51:06;;;;;;;;;61.00;49.00;;;;;3.73;44.32;101533.50;5017064;28;45522;-62
2023/03/02 06:53:32;;;;;;;;;66.00;51.50;;;;;3.71;44.17;101542.94;5009812;28;45617;-64
2023/03/02 06:55:57;;;;;;;;;60.00;48.00;;;;;3.74;44.37;101545.66;5009249;28;45377;-64
2023/03/02 06:58:22;;;;;;;;;62.50;47.25;;;;;3.70;44.83;101544.69;5001013;28;45498;-62
2023/03/02 07:00:48;;;;;;;;;63.00;48.50;;;;;3.73;44.17;101546.50;5004734;28;46203;-64
2023/03/02 07:03:13;;;;;;;;;65.25;48.00;;;;;3.72;44.29;101550.81;4999097;28;46035;-64
2023/03/02 07:05:38;;;;;;;;;61.25;48.25;;;;;3.71;44.37;101558.56;5010720;28;45337;-64
2023/03/02 07:08:04;;;;;;;;;60.00;47.75;;;;;3.72;44.57;101552.53;5011642;28;45386;-64
2023/03/02 07:10:29;;;;;;;;;61.75;50.00;;;;;3.68;44.11;101541.16;5016844;28;45374;-64
2023/03/02 07:12:55;;;;;;;;;59.00;49.25;;;;;3.70;44.65;101543.81;5016964;28;45421;-64
2023/03/02 07:15:20;;;;;;;;;59.00;47.50;;;;;3.70;44.54;101538.63;5015794;28;45247;-64
2023/03/02 07:17:46;;;;;;;;;59.00;49.25;;;;;3.70;44.31;101541.22;5017062;28;45349;-63
2023/03/02 07:20:14;;;;;;;;;58.00;46.25;;;;;3.70;44.73;101542.09;5031992;28;46002;-64
2023/03/02 07:22:40;;;;;;;;;53.25;42.50;;;;;3.70;44.61;101538.63;5016708;28;46319;-63
2023/03/02 07:25:07;;;;;;;;;62.25;49.75;;;;;3.69;45.00;101535.13;5016767;28;45507;-64
2023/03/02 07:27:32;;;;;;;;;60.75;48.25;;;;;3.66;44.60;101535.06;5016697;28;45421;-63
2023/03/02 07:29:58;;;;;;;;;59.25;48.25;;;;;3.68;45.11;101537.69;5016724;28;45270;-64
2023/03/02 07:32:23;;;;;;;;;61.00;49.25;;;;;3.69;44.78;101547.25;5016520;28;45807;-64
2023/03/02 07:34:49;;;;;;;;;63.25;50.00;;;;;3.69;44.35;101544.66;5015227;28;45412;-63
2023/03/02 07:37:14;;;;;;;;;60.75;50.00;;;;;3.70;44.52;101541.22;5015402;28;45477;-64
2023/03/02 07:39:39;;;;;;;;;61.00;45.75;;;;;3.69;44.58;101537.72;5015740;28;45267;-64
2023/03/02 07:42:07;;;;;;;;;67.25;52.50;;;;;3.68;44.74;101537.69;5006899;28;46162;-64
2023/03/02 07:44:33;;;;;;;;;55.50;46.00;;;;;3.70;45.08;101536.03;5000078;28;45378;-64
2023/03/02 07:46:58;;;;;;;;;58.00;48.50;;;;;3.72;44.75;101534.31;5018135;28;45253;-64
2023/03/02 07:49:23;;;;;;;;;61.00;48.00;;;;;3.70;44.66;101533.41;5034561;28;45456;-64
2023/03/02 07:51:49;;;;;;;;;62.00;47.75;;;;;3.70;44.55;101534.28;5018155;28;47159;-64
2023/03/02 07:54:14;;;;;;;;;62.00;49.50;;;;;3.71;44.92;101537.75;5019524;28;45516;-64
2023/03/02 07:56:40;;;;;;;;;60.25;44.50;;;;;3.69;45.20;101524.72;5019566;28;45387;-64
2023/03/02 07:59:05;;;;;;;;;58.50;47.00;;;;;3.72;44.98;101545.63;5019427;28;45528;-64
2023/03/02 08:01:30;;;;;;;;;61.50;49.25;;;;;3.74;45.17;101545.66;5017952;28;47256;-64
2023/03/02 08:03:56;;;;;;;;;61.25;49.25;;;;;3.73;45.00;101546.50;5017370;28;45906;-64
2023/03/02 08:06:21;;;;;;;;;66.00;50.00;;;;;3.76;44.55;101546.59;5007779;28;45849;-63
2023/03/02 08:08:47;;;;;;;;;59.00;46.25;;;;;3.76;44.74;101545.69;5005113;28;45315;-64
2023/03/02 08:11:17;;;;;;;;;63.25;49.00;;;;;3.79;45.04;101554.47;5019184;28;45317;-64
2023/03/02 08:13:42;;;;;;;;;58.00;47.00;;;;;3.79;44.59;101551.84;5019094;28;45261;-64
2023/03/02 08:16:10;;;;;;;;;62.75;49.50;;;;;3.84;45.08;101562.38;5019263;28;45353;-64
2023/03/02 08:18:37;;;;;;;;;66.25;49.00;;;;;3.87;44.62;101565.97;5034310;28;45496;-64
2023/03/02 08:21:09;;;;;;;;;61.00;51.75;;;;;3.90;44.81;101566.03;5018834;28;45986;-64
2023/03/02 08:23:34;;;;;;;;;66.25;51.00;;;;;3.94;44.82;101555.69;5018049;28;45274;-64
2023/03/02 08:26:00;;;;;;;;;65.25;50.00;;;;;3.98;44.95;101554.94;5019030;28;45219;-64
2023/03/02 08:28:25;;;;;;;;;59.00;49.50;;;;;4.01;44.75;101549.81;5019147;28;45260;-64
2023/03/02 08:30:58;;;;;;;;;60.50;48.75;;;;;4.03;45.21;101540.34;5017386;28;45762;-64
2023/03/02 08:33:24;;;;;;;;;66.75;51.00;;;;;4.07;44.99;101548.28;5019111;28;45242;-64
2023/03/02 08:36:04;;;;;;;;;60.25;48.75;;;;;4.11;44.89;101544.00;5018873;28;45226;-64
2023/03/02 08:38:31;;;;;;;;;68.50;50.00;;;;;4.18;45.05;101543.31;5017824;28;45714;-64
2023/03/02 08:40:56;;;;;;;;;63.75;50.75;;;;;4.22;45.21;101533.88;5015379;28;45370;-64
2023/03/02 08:43:24;;;;;;;;;64.00;52.00;;;;;4.29;45.42;101542.69;5010104;28;45261;-64
2023/03/02 08:45:55;;;;;;;;;65.00;51.00;;;;;4.32;45.37;101542.78;5005536;28;45310;-64
2023/03/02 08:48:21;;;;;;;;;59.25;47.75;;;;;4.36;45.16;101536.81;5018744;28;45535;-64
2023/03/02 08:50:59;;;;;;;;;63.00;49.00;;;;;4.45;44.96;101531.81;5017893;28;45444;-63
2023/03/02 08:53:25;;;;;;;;;66.50;50.50;;;;;4.45;45.26;101528.34;5018520;28;45211;-64
2023/03/02 08:55:51;;;;;;;;;66.75;51.25;;;;;4.55;44.92;101527.69;5018872;28;45210;-64
2023/03/02 08:58:16;;;;;;;;;59.75;47.75;;;;;4.54;45.38;101521.63;5018717;28;45307;-64
2023/03/02 09:00:42;;;;;;;;;66.50;51.75;;;;;4.65;45.34;101529.66;5018507;28;46130;-64
2023/03/02 09:03:07;;;;;;;;;70.00;55.25;;;;;4.74;45.73;101522.91;5018664;28;45317;-64
2023/03/02 09:05:33;;;;;;;;;75.50;58.00;;;;;4.77;45.66;101523.88;5013211;28;45355;-64
2023/03/02 09:07:58;;;;;;;;;62.25;48.75;;;;;4.90;45.64;101526.75;4998863;28;45307;-64
2023/03/02 09:10:23;;;;;;;;;64.25;50.75;;;;;4.96;45.42;101519.06;5017025;28;45414;-64
2023/03/02 09:12:49;;;;;;;;;67.75;52.75;;;;;5.04;45.27;101528.81;5018629;28;45321;-64
2023/03/02 09:15:14;;;;;;;;;61.00;48.50;;;;;5.13;45.67;101520.31;5018569;28;45290;-64
2023/03/02 09:17:39;;;;;;;;;66.50;53.50;;;;;5.21;45.61;101534.34;5018489;28;45343;-64
2023/03/02 09:20:06;;;;;;;;;70.75;55.00;;;;;5.28;45.41;101524.06;5018047;28;46070;-64
2023/03/02 09:22:34;;;;;;;;;67.50;52.50;;;;;5.41;45.47;101530.38;5018439;28;45232;-64
2023/03/02 09:25:00;;;;;;;;;65.00;50.75;;;;;5.53;45.48;101515.00;5018335;28;45192;-64
2023/03/02 09:27:25;;;;;;;;;67.25;50.50;;;;;5.57;45.62;101510.72;5018503;28;45238;-64
2023/03/02 09:29:50;;;;;;;;;61.75;49.25;;;;;5.77;45.45;101522.38;5017886;28;53812;-64
2023/03/02 09:32:15;;;;;;;;;57.75;47.00;;;;;5.88;45.58;101500.84;5016671;28;56189;-64
2023/03/02 09:34:41;;;;;;;;;65.25;51.25;;;;;6.03;45.85;101505.47;5018011;28;45478;-64
2023/03/02 09:37:06;;;;;;;;;63.50;49.25;;;;;6.17;45.67;101509.19;5018446;28;45444;-64
2023/03/02 09:39:31;;;;;;;;;65.25;49.75;;;;;6.30;45.85;101513.75;5017832;28;46131;-64
2023/03/02 09:42:07;;;;;;;;;60.75;49.25;;;;;6.52;45.91;101521.06;5005491;28;45417;-64
2023/03/02 09:44:58;;;;;;;;;61.50;49.25;;;;;6.70;45.78;101515.22;4994097;28;45407;-63
2023/03/02 09:47:29;;;;;;;;;63.00;49.75;;;;;6.87;45.85;101518.94;5028028;28;45802;-63
2023/03/02 09:50:05;;;;;;;;;63.50;51.00;;;;;7.01;45.82;101511.28;5018049;28;46206;-63
2023/03/02 09:52:58;;;;;;;;;65.75;51.75;;;;;7.24;46.00;101521.13;5017942;28;45398;-63
2023/03/02 09:55:27;;;;;;;;;65.00;51.00;;;;;7.35;45.98;101514.28;5017939;28;45387;-63
2023/03/02 09:57:54;;;;;;;;;62.00;47.50;;;;;7.51;46.02;101515.34;5018052;28;45234;-64
2023/03/02 10:00:29;;;;;;;;;65.50;50.75;;;;;7.65;45.88;101512.88;5018096;28;46517;-64
2023/03/02 10:03:06;;;;;;;;;63.00;48.50;;;;;7.78;45.93;101516.50;5017334;28;45290;-64
2023/03/02 10:05:41;;;;;;;;;64.25;48.50;;;;;7.88;45.77;101509.59;5012738;28;45359;-64
2023/03/02 10:08:17;;;;;;;;;63.50;50.00;;;;;7.98;45.85;101514.06;4999060;28;45406;-64
2023/03/02 10:10:46;;;;;;;;;61.50;49.75;;;;;8.10;45.85;101527.25;5017754;28;45381;-63
2023/03/02 10:13:33;;;;;;;;;58.75;46.50;;;;;8.23;45.80;101524.75;5017698;28;45335;-64
2023/03/02 10:16:29;;;;;;;;;66.00;50.00;;;;;8.25;45.87;101502.94;5018024;28;45438;-64
2023/03/02 10:19:15;;;;;;;;;63.00;50.50;;;;;8.47;45.69;101516.22;5016273;28;46027;-64
2023/03/02 10:21:44;;;;;;;;;62.75;50.00;;;;;8.60;45.54;101517.16;5017535;28;46308;-64
2023/03/02 10:24:37;;;;;;;;;64.75;51.00;;;;;8.72;45.83;101516.38;5032887;28;45381;-64
2023/03/02 10:27:24;;;;;;;;;62.75;49.75;;;;;8.82;45.63;101505.09;5017931;28;45350;-64
2023/03/02 10:29:58;;;;;;;;;57.75;46.75;;;;;8.96;45.45;101509.53;5017589;28;45453;-64
2023/03/02 10:32:30;;;;;;;;;61.75;48.50;;;;;9.08;45.29;101512.19;5017595;28;45427;-64
2023/03/02 10:34:59;;;;;;;;;65.50;49.75;;;;;9.17;45.62;101496.50;5017618;28;45595;-64
2023/03/02 10:37:28;;;;;;;;;65.75;50.25;;;;;9.33;45.53;101501.78;5017489;28;45325;-64
2023/03/02 10:39:54;;;;;;;;;59.00;49.00;;;;;9.43;45.51;101504.47;5017405;28;45526;-64
2023/03/02 10:42:31;;;;;;;;;63.50;49.75;;;;;9.57;45.45;101508.84;5004559;28;45355;-63
2023/03/02 10:45:07;;;;;;;;;67.75;51.00;;;;;9.66;45.31;101501.00;5007112;28;45386;-64
2023/03/02 10:47:33;;;;;;;;;62.00;49.00;;;;;9.79;45.21;101490.53;5016032;28;45440;-65
2023/03/02 10:49:58;;;;;;;;;63.50;49.75;;;;;9.90;45.33;101494.91;5017161;28;45375;-65
2023/03/02 10:52:27;;;;;;;;;58.75;48.25;;;;;10.00;45.36;101490.53;5016054;28;46523;-63
2023/03/02 10:55:12;;;;;;;;;63.00;50.25;;;;;10.09;45.07;101476.53;5049375;28;45325;-66
2023/03/02 10:57:43;;;;;;;;;59.25;48.75;;;;;10.21;45.46;101488.75;5016344;27;45392;-65
2023/03/02 11:00:17;;;;;;;;;62.50;45.50;;;;;10.23;45.15;101473.88;5017114;28;45304;-64
2023/03/02 11:02:58;;;;;;;;;63.00;49.00;;;;;10.37;44.95;101479.16;5015860;28;47379;-64
2023/03/02 11:05:30;;;;;;;;;58.75;48.25;;;;;10.42;44.93;101473.91;5012877;28;45246;-64
2023/03/02 11:08:15;;;;;;;;;62.50;50.00;;;;;10.58;45.04;101491.38;5012009;28;45564;-64
2023/03/02 11:10:50;;;;;;;;;60.50;47.00;;;;;10.69;44.85;101480.81;5021665;28;45884;-65
2023/03/02 11:13:26;;;;;;;;;62.75;49.75;;;;;10.78;44.99;101483.44;5015611;28;45376;-65
2023/03/02 11:15:58;;;;;;;;;58.00;46.50;;;;;10.88;44.78;101481.66;5015967;28;45164;-65
2023/03/02 11:18:30;;;;;;;;;61.00;47.25;;;;;10.96;44.13;101468.47;5017045;28;45321;-64
2023/03/02 11:21:17;;;;;;;;;65.75;52.00;;;;;11.04;44.67;101475.47;5016713;28;45463;-64